หน้าหลัก
METAR-TAF:

METAR-TAF

ท่าอากาศยาน :

Chinandega, นิการากัว

ละติจูด: 12-38N, ลองจิจูด: 087-08W, ความสูง: 53 ม.

การสังเกตสภาพอากาศปัจจุบัน

รายงานได้ทำขึ้นเมื่อ 1 ชั่วโมงและ 5 นาทีที่แล้ว ณ เวลา 23:00 UTC
ลม 4 นอตจากใต้
อุณหภูมิ 31°C
ความชื้น 71%
ความกดอากาศ 1009 hPa
ทัศนวิสัย 10 กม. หรือมากกว่า
มีเมฆน้อยที่ความสูง 2500 ฟุต, คิวมูลัสที่ก่อตัวขึ้นสูง.

METAR: MNCH 242300Z 17004KT 9999 FEW025TCU 31/25 Q1009 TCU/E

เวลา: 18:05 (00:05 UTC)


TAF: หายไป

สังเกตการณ์สภาพอากาศและพยากรณ์อากาศของสนามบินมากกว่า 4000 แห่ง (รายงาน METAR และ TAF).

สถานีที่ดูได้จะแสดงไว้ด้วยจุดสีเหลืองและสีแดงบนแผนที่.

เลื่อนเมาส์ไปเหนือจุดเพื่อดูชื่อสถานี.

แล้วคลิกเพื่อดูสังเกตการณ์และการพยากรณ์สภาพอากาศ.

ในการเปลี่ยนแผนที่: คลิกที่ปุ่มสีเขียวที่มีกากบาทสีดำเพื่อซูมเข้า; ที่ปุ่มสีเขียวที่มีขีดเพื่อซูมออก; หรือที่ลูกศรสีเขียวเพื่อไปยังแผนที่ที่อยู่ติดกัน.


METAR-TAF: